Аэропорт: Уфа. Уфа

ICAO: UWUU

METAR:
2020-10-24 05:30:00
UWUU 240530Z 20006MPS 160V220 4000 BR OVC005 03/02 Q1005 R14R/290344 TEMPO 0500 FG VV003 RMK QBB150
METAR:
2020-10-24 01:47:00
TAF UWUU 240147Z 2403/2503 18006G12MPS 5000 -RA OVC015 TX08/2412Z TN02/2501Z TEMPO 2403/2406 16008G15MPS 0500 +SHSNRA FG BKN005 BKN016CB TEMPO 2406/2503 22006G12MPS 2100 -SHRA BKN007CB